x

Upper Potomac, Md (44061) Weather Station

2:48pm - Tue 27th Jun 2017 All times are EDT. -4 hours from GMT.

  • Wind
    11mph, 13mph gusts
  • Sea Temp 80°f
  • Air Temp 75°f
  • Sea Pressure 1015.7mb
  • Upper Potomac, Md
  • Upper Potomac, Md

More Historic Weather Station data

Upgrade to MSW Pro to gain access to the past 30 days of data for over 8000 Wavebouys and Weather Stations around the globe.

Join Pro

Comparision Forecast

View Surf forecast
   
Tue 06/27 2:48pm 11 13 mph 1015.7mb 80f 75f
2:18pm 9 16 mph 1016.2mb 81f 76f
1:48pm 9 11 mph 1015.9mb 81f 77f
1:18pm 7 9 mph 1016.4mb 80f 75f
12:48pm 11 18 mph 1016.8mb 80f 75f
12:18pm 4 7 mph 1016.8mb 81f 74f
11:18am 7 9 mph 1016.6mb 80f 75f
10:48am 4 7 mph 1017mb 80f 74f
10:18am 2 7 mph 1017.4mb 80f 74f
9:48am 7 9 mph 1017.5mb 80f 72f
9:18am 4 9 mph 1017.4mb 80f 72f
8:48am 2 4 mph 1017.3mb 80f 72f
8:18am 2 4 mph 1016.9mb 80f 73f
7:48am 2 4 mph 1017.4mb 80f 69f
7:18am 4 9 mph 1017mb 80f 69f
6:48am 2 4 mph 1017.1mb 80f 69f
6:18am 4 7 mph 1016.7mb 81f 69f
5:48am 4 7 mph 1016.8mb 81f 69f
5:18am 4 7 mph 1016.1mb 81f 69f
4:48am 4 9 mph 1015.9mb 81f 70f
4:18am 2 4 mph 1015.6mb 81f 70f
3:48am 7 7 mph 1015.3mb 81f 69f
3:18am 7 9 mph 1015.5mb 81f 70f
2:48am 4 7 mph 1016.1mb 81f 70f
2:18am 7 9 mph 1015.7mb 81f 71f
1:48am 7 9 mph 1015.8mb 81f 72f
1:18am 7 11 mph 1015.9mb 81f 72f
12:48am 7 9 mph 1015.8mb 81f 71f
12:18am 11 13 mph 1016.1mb 81f 71f
Mon 06/26 11:48pm 9 11 mph 1015.5mb 81f 71f
11:18pm 9 13 mph 1015.7mb 81f 72f
10:48pm 9 9 mph 1015.4mb 81f 73f
10:18pm 9 11 mph 1016.1mb 81f 73f
9:48pm 9 11 mph 1015.5mb 81f 73f
9:18pm 7 9 mph 1015mb 81f 74f
8:48pm 7 7 mph 1015.5mb 81f 75f
8:18pm 7 9 mph 1015.5mb 81f 76f
7:48pm 9 11 mph 1015.6mb 81f 77f
7:18pm 9 11 mph 1016.2mb 81f 79f
6:48pm 9 11 mph 1015.6mb 81f 78f
6:18pm 7 7 mph 1015.9mb 81f 78f
5:48pm 9 11 mph 1015.9mb 81f 78f
5:18pm 9 9 mph 1016.9mb 81f 77f
4:48pm 9 13 mph 1017mb 81f 77f
4:18pm 9 13 mph 1016.8mb 81f 76f
3:48pm 7 11 mph 1017.6mb 82f 78f
3:18pm 7 11 mph 1016.9mb 82f 78f
2:48pm 9 16 mph 1017.6mb 82f 77f
2:18pm 2 4 mph 1018.4mb 81f 77f
1:48pm 9 11 mph 1018.3mb 81f 76f
1:18pm 13 20 mph 1018.7mb 81f 75f
12:48pm 7 11 mph 1018mb 81f 75f
12:18pm 9 13 mph 1019.2mb 81f 74f
11:48am 16 18 mph 1019.2mb 81f 74f
11:18am 11 16 mph 1019.5mb 81f 75f
10:48am 7 13 mph 1019.5mb 81f 75f
10:18am 11 20 mph 1019.3mb 81f 75f
9:48am 11 18 mph 1019.5mb 81f 75f
9:18am 11 13 mph 1019.1mb 81f 74f
8:18am  -  2 mph 1019.4mb 81f 76f
7:48am 2 2 mph 1018.5mb 81f 74f
7:18am  -  2 mph 1019.3mb 81f 75f
6:48am 2 4 mph 1019mb 81f 71f
6:18am 2 4 mph 1018.5mb 81f 70f
5:48am 4 7 mph 1018.5mb 81f 68f
5:18am 7 11 mph 1017.9mb 81f 68f
4:48am 9 11 mph 1018.1mb 81f 69f
4:18am 11 16 mph 1017.7mb 81f 69f
3:48am 9 11 mph 1017.4mb 81f 70f
2:48am 4 4 mph 1017.6mb 82f 70f
2:18am 4 7 mph 1017.5mb 82f 70f
1:48am 7 9 mph 1017.1mb 82f 71f
1:18am 9 11 mph 1017.3mb 82f 71f
12:48am 7 9 mph 1017.7mb 82f 72f
12:18am 7 7 mph 1017.1mb 82f 72f
Sun 06/25 11:48pm 4 7 mph 1017.5mb 82f 73f
11:18pm 7 9 mph 1017.3mb 82f 74f
10:48pm 4 4 mph 1016.9mb 82f 75f
10:18pm 4 4 mph 1017.3mb 82f 75f
9:48pm 4 7 mph 1016.7mb 82f 76f
9:18pm 4 7 mph 1016.9mb 82f 76f
8:48pm 4 9 mph 1017mb 82f 77f
8:18pm 11 16 mph 1016.9mb 82f 78f
7:48pm 11 16 mph 1016.2mb 82f 79f
7:18pm 11 16 mph 1015.9mb 82f 80f
6:48pm 11 18 mph 1015mb 82f 81f
6:18pm 7 11 mph 1014.9mb 82f 81f
5:48pm 7 11 mph 1015mb 82f 81f
5:18pm 11 13 mph 1015.1mb 82f 82f
4:48pm 7 9 mph 1014.8mb 82f 82f
4:18pm 7 11 mph 1014.9mb 82f 81f
3:48pm 18 27 mph 1015.5mb 82f 81f
3:18pm 11 16 mph 1015.7mb 82f 81f
2:48pm 16 20 mph 1016.3mb 82f 81f
2:18pm 7 9 mph 1015.9mb 82f 81f
1:48pm  -  mph 1016.5mb 82f 79f
1:18pm 7 11 mph 1017mb 82f 79f
12:48pm 9 13 mph 1017.2mb 82f 79f
12:18pm 16 20 mph 1017.3mb 82f 78f
11:48am 7 9 mph 1017mb 82f 80f
11:18am 13 18 mph 1017.7mb 82f 79f
10:48am 2 2 mph 1017.7mb 82f 80f
10:18am 4 7 mph 1017.5mb 82f 78f
9:48am 9 13 mph 1017.4mb 82f 77f
8:48am 4 7 mph 1017.3mb 82f 77f
8:18am 7 9 mph 1017.2mb 82f 76f
7:48am 4 4 mph 1016.6mb 82f 75f
7:18am  -  2 mph 1016.5mb 82f 77f
6:48am  -  2 mph 1015.8mb 82f 73f
6:18am 2 2 mph 1016mb 82f 73f
5:48am 4 7 mph 1015.6mb 82f 73f
5:18am 2 4 mph 1015mb 82f 73f
4:48am 2 4 mph 1014.9mb 82f 74f
4:18am 4 7 mph 1014.3mb 82f 74f
3:48am 2 4 mph 1014.8mb 82f 75f
3:18am 2 4 mph 1014.9mb 82f 74f
2:48am 4 4 mph 1014.5mb 82f 74f
2:18am 7 7 mph 1014.4mb 82f 74f
1:48am 7 9 mph 1014.6mb 82f 73f
1:18am 7 9 mph 1014.8mb 82f 75f
12:48am 9 9 mph 1014.5mb 82f 76f
12:18am 7 7 mph 1014.5mb 82f 74f
Sat 06/24 11:48pm 4 4 mph 1014.9mb 82f 74f
11:18pm 4 4 mph 1014.3mb 82f 75f
10:48pm 4 4 mph 1014.1mb 82f 76f
10:18pm 2 2 mph 1014.9mb 82f 77f
9:48pm 2 2 mph 1014.1mb 82f 77f
9:18pm 7 7 mph 1013.8mb 82f 78f
8:48pm 7 7 mph 1013.2mb 82f 79f
8:18pm 4 4 mph 1013.2mb 82f 81f
7:48pm 4 7 mph 1013mb 82f 82f
7:18pm 7 7 mph 1012.8mb 82f 83f
6:48pm 9 13 mph 1012.8mb 82f 83f
5:48pm 9 13 mph 1012.4mb 82f 83f
4:48pm 7 9 mph 1012.4mb 82f 82f
4:18pm 11 16 mph 1012.4mb 82f 82f
3:48pm 11 13 mph 1012.4mb 82f 82f
3:18pm 13 18 mph 1012.6mb 82f 82f
2:48pm 13 16 mph 1012.2mb 82f 82f
2:18pm 9 13 mph 1012mb 82f 82f
1:48pm 11 16 mph 1011.8mb 82f 82f
1:18pm 11 13 mph 1012.2mb 82f 81f
12:48pm 13 18 mph 1011.5mb 82f 80f
12:18pm 11 20 mph 1012mb 82f 80f
11:48am 13 18 mph 1011.8mb 82f 79f
11:18am 16 22 mph 1011.4mb 82f 78f
10:48am 18 27 mph 1011.3mb 82f 78f
10:18am 16 25 mph 1010.2mb 82f 78f
9:48am 16 22 mph 1010.5mb 82f 77f
9:18am 16 20 mph 1009.7mb 82f 77f
8:48am 16 25 mph 1009mb 82f 76f
8:18am 11 16 mph 1008.4mb 82f 76f
7:48am 11 16 mph 1007.6mb 82f 75f
7:18am 9 13 mph 1007.1mb 82f 74f
6:48am 9 11 mph 1006.6mb 82f 73f
6:18am 9 11 mph 1006.2mb 82f 71f
5:48am 4 9 mph 1005.2mb 82f 70f
5:18am 11 18 mph 1003mb 82f 71f
4:48am 16 20 mph 1002.1mb 82f 77f
4:18am 18 20 mph 1001.9mb 82f 78f
3:48am 16 18 mph 1001.9mb 82f 77f
3:18am 11 13 mph 1002.5mb 82f 76f
2:48am 13 18 mph 1002.7mb 82f 77f
2:18am 16 18 mph 1003.9mb 82f 78f
1:48am 16 16 mph 1004.6mb 82f 79f
1:18am 16 18 mph 1004.7mb 82f 80f
12:48am 16 20 mph 1004.9mb 82f 80f
12:18am 18 22 mph 1004.9mb 82f 80f
Fri 06/23 11:48pm 18 22 mph 1005.4mb 82f 80f
11:18pm 18 22 mph 1005.6mb 82f 80f
10:48pm 18 22 mph 1006mb 82f 80f
10:18pm 16 20 mph 1006.4mb 82f 80f
9:48pm 16 20 mph 1006.2mb 82f 80f
9:18pm 13 18 mph 1006.5mb 82f 81f
8:48pm 13 16 mph 1006.6mb 82f 81f
8:18pm 13 18 mph 1006.3mb 82f 82f
7:48pm 16 25 mph 1006.3mb 82f 82f